Grant City, Missouri
Current Conditions -  °F | °C
As of 9:53 AM on Friday 19 Dec 2014 (Local Time) from KLWD Reporting Station
Haze Haze  
Wind Chill: 24°   Ceiling: 400
Heat Index: 29°   Visibility: 4mi
Dew Point: 28°   Wind: 5mph
Humidity: 96%   Direction: 180°S
Pressure: 30.27"   Gusts: NA
Location:  40.49°N, 94.41°W
Report Text: KLWD 191553Z AUTO 18004KT 4SM BR OVC004 M02/M02 A3027 RMK AO2 SLP266 T10171022
Loading
Personal Weather Stations






























Interactive Weather Map New forecast layout! Learn more

10-Day Weather Forecast

Advertisements
Track Severe Weather on mobile